createdAt,value
2023-01-30T00:01:06.998Z,32.05
2023-01-30T00:03:35.296Z,27.02
2023-01-30T00:06:03.372Z,28.92
2023-01-30T00:08:31.465Z,25.35
2023-01-30T00:11:04.297Z,32.95
2023-01-30T00:13:32.528Z,31.17
2023-01-30T00:16:02.069Z,31.55
2023-01-30T00:18:30.247Z,32.88
2023-01-30T00:20:59.048Z,34.63
2023-01-30T00:23:27.864Z,32.63
2023-01-30T00:25:56.252Z,26.55
2023-01-30T00:28:24.747Z,34.75
2023-01-30T00:30:53.964Z,31.15
2023-01-30T00:33:26.145Z,22.77
2023-01-30T00:35:55.676Z,31.65
2023-01-30T00:38:24.410Z,29.40
2023-01-30T00:40:52.852Z,28.58
2023-01-30T00:43:39.472Z,28.08
2023-01-30T00:46:40.416Z,27.98
2023-01-30T00:49:09.946Z,28.73
2023-01-30T00:51:37.974Z,30.15
2023-01-30T00:54:06.189Z,25.50
2023-01-30T00:56:34.264Z,28.13
2023-01-30T00:59:02.737Z,32.28
2023-01-30T01:01:30.867Z,34.00
2023-01-30T01:03:58.974Z,25.48
2023-01-30T01:06:28.394Z,28.30
2023-01-30T01:08:56.451Z,26.63
2023-01-30T01:11:27.970Z,31.77
2023-01-30T01:13:57.617Z,32.75
2023-01-30T01:16:27.292Z,30.10
2023-01-30T01:18:56.151Z,32.45
2023-01-30T01:21:24.601Z,31.75
2023-01-30T01:23:55.371Z,29.05
2023-01-30T01:26:23.516Z,30.08
2023-01-30T01:28:55.287Z,32.97
2023-01-30T01:31:24.270Z,30.10
2023-01-30T01:33:52.970Z,27.45
2023-01-30T01:36:49.882Z,25.27
2023-01-30T01:39:10.552Z,30.55
2023-01-30T01:41:37.617Z,28.90
2023-01-30T01:44:07.476Z,29.67
2023-01-30T01:46:39.207Z,25.52
2023-01-30T01:49:14.446Z,29.27
2023-01-30T01:51:47.455Z,30.92
2023-01-30T01:54:20.427Z,29.85
2023-01-30T01:56:50.200Z,31.80
2023-01-30T01:59:23.822Z,31.92
2023-01-30T02:01:55.231Z,26.80
2023-01-30T02:04:47.893Z,28.63
2023-01-30T02:07:18.806Z,26.63
2023-01-30T02:09:48.480Z,26.85
2023-01-30T02:12:17.014Z,37.13
2023-01-30T02:14:46.031Z,30.88
2023-01-30T02:17:14.063Z,26.55
2023-01-30T02:19:50.550Z,34.88
2023-01-30T02:22:44.142Z,24.08
2023-01-30T02:25:57.012Z,26.70
2023-01-30T02:28:49.700Z,22.83
2023-01-30T02:31:30.839Z,25.90
2023-01-30T02:34:13.013Z,30.08
2023-01-30T02:36:51.867Z,28.95
2023-01-30T02:39:31.830Z,31.10
2023-01-30T02:42:05.753Z,28.30
2023-01-30T02:44:44.253Z,25.58
2023-01-30T02:47:20.256Z,30.77
2023-01-30T02:49:52.798Z,24.45
2023-01-30T02:52:23.416Z,27.42
2023-01-30T02:54:51.485Z,26.00
2023-01-30T02:57:22.319Z,27.70
2023-01-30T02:59:55.195Z,24.13
2023-01-30T03:03:07.024Z,24.98
2023-01-30T03:06:09.597Z,23.60
2023-01-30T03:08:48.192Z,23.58
2023-01-30T03:11:16.265Z,24.05
2023-01-30T03:13:52.548Z,22.13
2023-01-30T03:16:26.688Z,28.45
2023-01-30T03:18:56.329Z,21.90
2023-01-30T03:21:24.346Z,31.27
2023-01-30T03:23:52.562Z,26.05
2023-01-30T03:26:24.709Z,23.83
2023-01-30T03:28:54.013Z,28.85
2023-01-30T03:31:22.279Z,26.52
2023-01-30T03:33:50.531Z,27.48
2023-01-30T03:36:20.175Z,24.30
2023-01-30T03:38:48.298Z,24.92
2023-01-30T03:41:16.462Z,23.70
2023-01-30T03:43:44.632Z,24.80
2023-01-30T03:46:12.696Z,29.48
2023-01-30T03:48:40.830Z,18.67
2023-01-30T03:51:08.871Z,24.08
2023-01-30T03:53:38.326Z,26.75
2023-01-30T03:56:06.905Z,22.08
2023-01-30T03:58:35.056Z,24.05
2023-01-30T04:01:03.186Z,24.08
2023-01-30T04:03:31.317Z,21.70
2023-01-30T04:05:59.333Z,24.77
2023-01-30T04:08:27.460Z,22.45
2023-01-30T04:10:56.858Z,21.17
2023-01-30T04:13:25.110Z,26.08
2023-01-30T04:15:53.133Z,26.90
2023-01-30T04:18:21.209Z,22.85
2023-01-30T04:20:49.261Z,24.58
2023-01-30T04:23:17.313Z,22.75
2023-01-30T04:25:48.434Z,25.90
2023-01-30T04:28:17.883Z,24.50
2023-01-30T04:30:46.147Z,24.42
2023-01-30T04:33:14.210Z,25.33
2023-01-30T04:35:42.269Z,23.17
2023-01-30T04:38:10.300Z,20.50
2023-01-30T04:40:38.369Z,22.85
2023-01-30T04:43:06.408Z,22.77
2023-01-30T04:45:35.815Z,21.77
2023-01-30T04:48:03.952Z,25.67
2023-01-30T04:50:32.153Z,25.73
2023-01-30T04:53:00.243Z,23.25
2023-01-30T04:55:28.377Z,25.42
2023-01-30T04:57:56.521Z,23.23
2023-01-30T05:00:25.079Z,24.15
2023-01-30T05:02:55.878Z,20.95
2023-01-30T05:05:24.406Z,17.30
2023-01-30T05:07:52.852Z,22.67
2023-01-30T05:10:21.210Z,21.65
2023-01-30T05:12:49.275Z,19.15
2023-01-30T05:15:17.851Z,21.38
2023-01-30T05:17:46.076Z,24.45
2023-01-30T05:20:16.072Z,25.73
2023-01-30T05:22:44.078Z,21.02
2023-01-30T05:25:12.372Z,21.90
2023-01-30T05:27:40.417Z,25.13
2023-01-30T05:30:10.215Z,20.25
2023-01-30T05:32:38.297Z,21.45
2023-01-30T05:35:07.403Z,18.02
2023-01-30T05:37:37.827Z,28.10
2023-01-30T05:40:07.421Z,21.58
2023-01-30T05:42:35.429Z,21.73
2023-01-30T05:45:03.479Z,20.23
2023-01-30T05:47:31.504Z,22.75
2023-01-30T05:49:59.564Z,21.63
2023-01-30T05:52:27.787Z,24.23
2023-01-30T05:54:57.265Z,21.58
2023-01-30T05:57:25.295Z,18.27
2023-01-30T05:59:53.380Z,23.70
2023-01-30T06:02:21.425Z,20.85
2023-01-30T06:04:49.515Z,18.65
2023-01-30T06:07:17.569Z,18.75
2023-01-30T06:09:45.633Z,17.27
2023-01-30T06:12:15.044Z,15.38
2023-01-30T06:14:43.117Z,21.40
2023-01-30T06:17:11.183Z,22.23
2023-01-30T06:19:39.228Z,21.65
2023-01-30T06:22:07.276Z,20.48
2023-01-30T06:24:35.400Z,16.05
2023-01-30T06:27:03.442Z,17.58
2023-01-30T06:29:32.938Z,19.13
2023-01-30T06:32:00.988Z,20.15
2023-01-30T06:34:29.070Z,23.42
2023-01-30T06:36:57.143Z,22.65
2023-01-30T06:39:25.249Z,22.05
2023-01-30T06:41:53.284Z,14.45
2023-01-30T06:44:21.456Z,21.67
2023-01-30T06:46:50.842Z,17.20
2023-01-30T06:49:18.900Z,19.55
2023-01-30T06:51:46.988Z,17.02
2023-01-30T06:54:15.200Z,25.20
2023-01-30T06:56:43.244Z,18.45
2023-01-30T06:59:11.462Z,14.38
2023-01-30T07:01:39.858Z,13.07
2023-01-30T07:04:09.391Z,23.25
2023-01-30T07:06:39.034Z,34.03
2023-01-30T07:09:08.164Z,15.95
2023-01-30T07:11:36.199Z,15.32
2023-01-30T07:14:06.237Z,16.08
2023-01-30T07:16:34.416Z,19.75
2023-01-30T07:19:02.564Z,22.05
2023-01-30T07:21:31.937Z,17.75
2023-01-30T07:24:00.262Z,21.95
2023-01-30T07:26:29.762Z,19.50
2023-01-30T07:28:57.933Z,18.88
2023-01-30T07:31:26.086Z,27.27
2023-01-30T07:33:54.229Z,17.77
2023-01-30T07:36:22.263Z,19.73
2023-01-30T07:38:51.742Z,22.88
2023-01-30T07:41:19.778Z,21.63
2023-01-30T07:43:50.110Z,19.52
2023-01-30T07:46:18.157Z,17.73
2023-01-30T07:48:46.287Z,17.42
2023-01-30T07:51:14.882Z,19.55
2023-01-30T07:53:42.976Z,21.27
2023-01-30T07:56:18.574Z,24.92
2023-01-30T07:58:46.720Z,27.23
2023-01-30T08:01:14.929Z,25.08
2023-01-30T08:03:43.871Z,18.98
2023-01-30T08:06:12.489Z,16.25
2023-01-30T08:08:40.915Z,25.65
2023-01-30T08:11:09.065Z,23.67
2023-01-30T08:13:38.526Z,20.40
2023-01-30T08:16:08.255Z,15.85
2023-01-30T08:18:36.820Z,21.33
2023-01-30T08:21:07.173Z,21.48
2023-01-30T08:23:35.844Z,15.98
2023-01-30T08:26:06.211Z,16.67
2023-01-30T08:28:34.697Z,24.02
2023-01-30T08:31:04.213Z,17.60
2023-01-30T08:33:32.402Z,17.55
2023-01-30T08:36:00.461Z,19.02
2023-01-30T08:38:28.697Z,18.10
2023-01-30T08:40:57.950Z,18.83
2023-01-30T08:43:26.222Z,26.03
2023-01-30T08:45:55.363Z,16.37
2023-01-30T08:48:25.412Z,22.13
2023-01-30T08:50:54.062Z,14.27
2023-01-30T08:53:22.439Z,13.93
2023-01-30T08:55:57.176Z,15.73
2023-01-30T08:58:25.356Z,14.67
2023-01-30T09:00:53.519Z,16.83
2023-01-30T09:03:21.688Z,34.97
2023-01-30T09:05:55.685Z,35.87
2023-01-30T09:08:23.869Z,13.83
2023-01-30T09:10:51.900Z,16.57
2023-01-30T09:13:19.999Z,16.30
2023-01-30T09:15:48.331Z,13.00
2023-01-30T09:18:16.434Z,19.00
2023-01-30T09:20:44.486Z,17.50
2023-01-30T09:23:13.962Z,14.40
2023-01-30T09:25:42.237Z,12.57
2023-01-30T09:28:10.396Z,13.43
2023-01-30T09:30:38.646Z,20.53
2023-01-30T09:33:06.724Z,16.77
2023-01-30T09:35:34.833Z,10.77
2023-01-30T09:38:04.303Z,13.97
2023-01-30T09:40:37.664Z,11.67
2023-01-30T09:43:34.101Z,15.23
2023-01-30T09:46:16.101Z,13.23
2023-01-30T09:48:55.227Z,12.40
2023-01-30T09:51:39.483Z,10.60
2023-01-30T09:54:20.260Z,12.77
2023-01-30T09:56:55.688Z,10.53
2023-01-30T09:59:30.622Z,9.03
2023-01-30T10:02:12.295Z,19.63
2023-01-30T10:05:00.523Z,13.70
2023-01-30T10:07:43.034Z,14.60
2023-01-30T10:10:19.224Z,8.20
2023-01-30T10:12:55.868Z,15.57
2023-01-30T10:15:45.301Z,12.83
2023-01-30T10:18:34.334Z,11.23
2023-01-30T10:21:12.374Z,10.60
2023-01-30T10:23:56.323Z,12.20
2023-01-30T10:26:27.798Z,12.33
2023-01-30T10:29:07.933Z,14.53
2023-01-30T10:31:43.476Z,14.83
2023-01-30T10:34:15.924Z,15.47
2023-01-30T10:36:50.274Z,14.03
2023-01-30T10:39:27.610Z,20.73
2023-01-30T10:42:03.629Z,17.33
2023-01-30T10:44:33.281Z,18.97
2023-01-30T10:47:32.099Z,20.53
2023-01-30T10:50:16.437Z,20.67
2023-01-30T10:52:53.026Z,25.53
2023-01-30T10:55:38.277Z,23.93
2023-01-30T10:58:15.305Z,25.10
2023-01-30T11:00:52.096Z,25.43
2023-01-30T11:03:26.092Z,25.83
2023-01-30T11:05:57.738Z,27.07
2023-01-30T11:08:27.987Z,22.90
2023-01-30T11:10:57.402Z,25.97
2023-01-30T11:13:30.494Z,23.43
2023-01-30T11:16:01.634Z,24.43
2023-01-30T11:21:27.007Z,24.30
2023-01-30T11:24:07.065Z,26.90
2023-01-30T11:26:46.796Z,28.17
2023-01-30T11:29:28.184Z,24.43
2023-01-30T11:32:02.795Z,24.70
2023-01-30T11:34:31.134Z,25.87
2023-01-30T11:37:15.382Z,38.17
2023-01-30T11:39:51.582Z,20.33
2023-01-30T11:42:21.790Z,33.13
2023-01-30T11:45:10.803Z,32.90
2023-01-30T11:48:04.506Z,47.93
2023-01-30T11:50:42.766Z,24.67
2023-01-30T11:53:30.288Z,23.20
2023-01-30T11:56:06.384Z,27.40
2023-01-30T11:58:39.686Z,26.43
2023-01-30T12:01:10.342Z,25.33
2023-01-30T12:03:48.502Z,25.17
2023-01-30T12:06:23.952Z,23.37
2023-01-30T12:08:55.852Z,32.23
2023-01-30T12:11:45.199Z,25.90
2023-01-30T12:14:38.927Z,20.90
2023-01-30T12:17:18.918Z,30.20
2023-01-30T12:19:58.104Z,21.53
2023-01-30T12:22:34.738Z,22.30
2023-01-30T12:25:10.136Z,19.63
2023-01-30T12:27:53.189Z,24.70
2023-01-30T12:30:27.779Z,24.13
2023-01-30T12:35:44.925Z,21.07
2023-01-30T12:38:17.201Z,22.83
2023-01-30T12:40:55.854Z,22.40
2023-01-30T12:43:58.707Z,25.73
2023-01-30T12:46:41.267Z,27.50
2023-01-30T12:49:37.612Z,24.30
2023-01-30T12:52:32.647Z,21.50
2023-01-30T12:55:11.043Z,21.20
2023-01-30T12:57:46.037Z,22.43
2023-01-30T13:00:29.876Z,21.70
2023-01-30T13:03:24.958Z,20.40
2023-01-30T13:06:04.047Z,23.07
2023-01-30T13:08:45.767Z,21.10
2023-01-30T13:11:29.208Z,22.40
2023-01-30T13:14:04.298Z,24.63
2023-01-30T13:16:39.853Z,23.80
2023-01-30T13:19:15.770Z,21.13
2023-01-30T13:21:51.204Z,20.70
2023-01-30T13:24:36.345Z,22.47
2023-01-30T13:27:09.461Z,24.63
2023-01-30T13:29:40.054Z,23.90
2023-01-30T13:32:16.121Z,27.03
2023-01-30T13:34:47.957Z,24.23
2023-01-30T13:37:17.675Z,25.07
2023-01-30T13:39:52.614Z,26.07
2023-01-30T13:42:33.416Z,44.20
2023-01-30T13:45:02.525Z,60.87
2023-01-30T13:47:43.675Z,25.30
2023-01-30T13:50:26.740Z,24.33
2023-01-30T13:52:59.042Z,32.30
2023-01-30T13:55:31.979Z,103.13
2023-01-30T13:58:10.473Z,64.23
2023-01-30T14:00:38.844Z,27.23
2023-01-30T14:03:25.436Z,26.63
2023-01-30T14:06:14.313Z,26.90
2023-01-30T14:08:52.294Z,26.17
2023-01-30T14:11:35.562Z,28.60
2023-01-30T14:14:20.718Z,23.20
2023-01-30T14:16:52.398Z,28.00
2023-01-30T14:19:23.177Z,31.10
2023-01-30T14:21:58.356Z,41.30
2023-01-30T14:24:27.855Z,32.07
2023-01-30T14:27:05.873Z,28.10
2023-01-30T14:29:54.328Z,31.30
2023-01-30T14:32:55.479Z,24.97
2023-01-30T14:35:30.276Z,25.33
2023-01-30T14:38:13.964Z,30.43
2023-01-30T14:40:47.215Z,27.90
2023-01-30T14:43:53.066Z,25.10
2023-01-30T14:46:54.696Z,32.50
2023-01-30T14:49:31.004Z,26.90
2023-01-30T14:51:59.548Z,31.80
2023-01-30T14:54:41.742Z,27.20
2023-01-30T14:57:27.643Z,30.10
2023-01-30T15:00:15.385Z,28.67
2023-01-30T15:02:49.250Z,24.33
2023-01-30T15:05:21.916Z,27.37
2023-01-30T15:07:52.864Z,33.57
2023-01-30T15:10:53.145Z,30.47
2023-01-30T15:13:41.994Z,26.43
2023-01-30T15:16:37.692Z,33.80
2023-01-30T15:19:23.429Z,32.33
2023-01-30T15:22:03.085Z,27.37
2023-01-30T15:24:58.260Z,38.27
2023-01-30T15:27:32.059Z,34.53
2023-01-30T15:30:17.227Z,33.90
2023-01-30T15:32:47.306Z,34.50
2023-01-30T15:35:29.565Z,32.50
2023-01-30T15:37:58.387Z,32.50
2023-01-30T15:40:28.669Z,38.23
2023-01-30T15:43:01.028Z,33.80
2023-01-30T15:45:37.878Z,36.00
2023-01-30T15:48:29.249Z,36.13
2023-01-30T15:51:00.217Z,38.27
2023-01-30T15:53:32.223Z,36.17
2023-01-30T15:56:03.209Z,34.27
2023-01-30T15:58:32.871Z,40.30
2023-01-30T16:01:02.573Z,39.07
2023-01-30T16:03:36.939Z,38.50
2023-01-30T16:06:05.194Z,36.70
2023-01-30T16:08:35.800Z,42.00
2023-01-30T16:11:04.373Z,42.10
2023-01-30T16:13:33.368Z,69.70
2023-01-30T16:16:04.936Z,44.07
2023-01-30T16:18:39.824Z,41.43
2023-01-30T16:21:10.984Z,50.17
2023-01-30T16:23:42.939Z,43.07
2023-01-30T16:26:18.022Z,43.83
2023-01-30T16:28:46.591Z,50.63
2023-01-30T16:31:14.909Z,45.17
2023-01-30T16:33:50.842Z,49.20
2023-01-30T16:36:33.970Z,45.27
2023-01-30T16:39:02.561Z,59.70
2023-01-30T16:41:32.051Z,49.73
2023-01-30T16:44:17.290Z,44.87
2023-01-30T16:46:51.295Z,39.73
2023-01-30T16:49:24.333Z,40.30
2023-01-30T16:52:01.891Z,42.67
2023-01-30T16:54:32.360Z,41.53
2023-01-30T16:57:02.837Z,43.13
2023-01-30T16:59:33.306Z,46.47
2023-01-30T17:02:03.238Z,52.63
2023-01-30T17:04:35.747Z,57.60
2023-01-30T17:07:05.730Z,50.30
2023-01-30T17:09:45.967Z,42.90
2023-01-30T17:12:39.310Z,46.33
2023-01-30T17:15:32.932Z,42.77
2023-01-30T17:18:01.062Z,39.50
2023-01-30T17:20:38.259Z,41.17
2023-01-30T17:23:10.293Z,47.73
2023-01-30T17:25:42.208Z,54.47
2023-01-30T17:28:13.190Z,44.30
2023-01-30T17:30:41.872Z,41.93
2023-01-30T17:33:11.934Z,45.30
2023-01-30T17:35:41.504Z,50.57
2023-01-30T17:38:11.454Z,41.77
2023-01-30T17:40:39.980Z,46.73
2023-01-30T17:43:09.572Z,48.50
2023-01-30T17:45:37.992Z,43.10
2023-01-30T17:48:06.794Z,46.20
2023-01-30T17:50:36.567Z,64.23
2023-01-30T17:53:06.675Z,55.77
2023-01-30T17:55:36.123Z,50.83
2023-01-30T17:58:04.724Z,56.10
2023-01-30T18:00:32.876Z,46.47
2023-01-30T18:03:01.000Z,67.23
2023-01-30T18:05:29.297Z,51.67
2023-01-30T18:07:57.333Z,51.40
2023-01-30T18:10:27.047Z,46.00
2023-01-30T18:12:55.101Z,57.20
2023-01-30T18:15:23.194Z,63.77
2023-01-30T18:17:54.923Z,68.60
2023-01-30T18:20:23.348Z,62.00
2023-01-30T18:22:51.414Z,49.57
2023-01-30T18:25:19.651Z,58.73
2023-01-30T18:27:49.242Z,52.97
2023-01-30T18:30:18.443Z,52.93
2023-01-30T18:32:53.916Z,52.87
2023-01-30T18:35:22.995Z,62.20
2023-01-30T18:37:51.269Z,55.03
2023-01-30T18:40:20.448Z,49.53
2023-01-30T18:42:50.080Z,47.23
2023-01-30T18:45:18.348Z,40.30
2023-01-30T18:47:46.374Z,44.97
2023-01-30T18:50:15.706Z,49.83
2023-01-30T18:52:43.709Z,51.00
2023-01-30T18:55:11.751Z,45.23
2023-01-30T18:57:39.781Z,38.63
2023-01-30T19:00:11.142Z,44.50
2023-01-30T19:02:39.217Z,51.00
2023-01-30T19:05:08.342Z,37.77
2023-01-30T19:07:36.945Z,49.27
2023-01-30T19:10:05.285Z,44.25
2023-01-30T19:12:50.924Z,40.03
2023-01-30T19:15:20.479Z,54.43
2023-01-30T19:17:48.540Z,59.33
2023-01-30T19:20:16.792Z,49.63
2023-01-30T19:22:44.834Z,52.10
2023-01-30T19:25:13.042Z,51.83
2023-01-30T19:27:42.157Z,47.22
2023-01-30T19:30:11.490Z,37.75
2023-01-30T19:32:40.888Z,39.13
2023-01-30T19:35:09.858Z,46.93
2023-01-30T19:37:39.103Z,45.10
2023-01-30T19:40:10.951Z,39.85
2023-01-30T19:42:43.848Z,42.05
2023-01-30T19:45:13.574Z,40.97
2023-01-30T19:47:42.989Z,41.80
2023-01-30T19:50:12.294Z,38.45
2023-01-30T19:52:40.807Z,44.15
2023-01-30T19:55:09.729Z,50.57
2023-01-30T19:57:37.763Z,41.60
2023-01-30T20:00:06.799Z,38.42
2023-01-30T20:02:34.960Z,39.45
2023-01-30T20:05:04.868Z,47.53
2023-01-30T20:07:35.114Z,45.53
2023-01-30T20:10:03.209Z,38.85
2023-01-30T20:12:31.915Z,45.75
2023-01-30T20:15:00.017Z,43.23
2023-01-30T20:17:28.059Z,48.10
2023-01-30T20:19:56.173Z,47.23
2023-01-30T20:22:25.588Z,39.33
2023-01-30T20:24:53.707Z,44.85
2023-01-30T20:27:21.937Z,47.03
2023-01-30T20:29:50.061Z,54.55
2023-01-30T20:32:18.119Z,47.50
2023-01-30T20:34:46.223Z,46.83
2023-01-30T20:37:14.261Z,47.17
2023-01-30T20:39:43.742Z,46.75
2023-01-30T20:42:12.729Z,43.63
2023-01-30T20:44:40.863Z,43.08
2023-01-30T20:47:09.841Z,41.78
2023-01-30T20:49:38.383Z,46.72
2023-01-30T20:52:06.497Z,43.35
2023-01-30T20:54:34.611Z,41.22
2023-01-30T20:57:06.316Z,37.03
2023-01-30T20:59:34.386Z,41.88
2023-01-30T21:02:02.415Z,38.85
2023-01-30T21:04:30.530Z,49.55
2023-01-30T21:06:58.589Z,40.88
2023-01-30T21:09:26.681Z,45.47
2023-01-30T21:11:55.403Z,42.55
2023-01-30T21:14:26.586Z,40.67
2023-01-30T21:16:54.820Z,43.15
2023-01-30T21:19:23.029Z,40.58
2023-01-30T21:21:53.975Z,30.90
2023-01-30T21:24:24.834Z,37.58
2023-01-30T21:26:53.675Z,40.08
2023-01-30T21:29:25.621Z,37.15
2023-01-30T21:31:54.062Z,41.15
2023-01-30T21:34:22.419Z,42.20
2023-01-30T21:37:04.679Z,40.00
2023-01-30T21:39:50.449Z,32.85
2023-01-30T21:42:35.971Z,36.88
2023-01-30T21:45:06.765Z,43.45
2023-01-30T21:47:34.809Z,41.22
2023-01-30T21:50:02.962Z,43.33
2023-01-30T21:52:33.174Z,41.10
2023-01-30T21:55:01.329Z,42.10
2023-01-30T21:57:29.394Z,38.85
2023-01-30T21:59:57.586Z,39.50
2023-01-30T22:02:27.094Z,35.72
2023-01-30T22:04:55.120Z,41.67
2023-01-30T22:07:23.326Z,41.28
2023-01-30T22:09:51.461Z,40.08
2023-01-30T22:12:19.522Z,37.08
2023-01-30T22:14:47.572Z,34.55
2023-01-30T22:17:15.678Z,39.80
2023-01-30T22:19:45.411Z,41.53
2023-01-30T22:22:13.518Z,41.40
2023-01-30T22:24:41.612Z,35.10
2023-01-30T22:27:09.623Z,40.92
2023-01-30T22:29:37.729Z,38.75
2023-01-30T22:32:06.340Z,38.50
2023-01-30T22:34:36.058Z,47.50
2023-01-30T22:37:05.745Z,47.25
2023-01-30T22:39:33.845Z,45.15
2023-01-30T22:42:01.952Z,43.03
2023-01-30T22:44:30.047Z,38.03
2023-01-30T22:46:58.085Z,40.88
2023-01-30T22:49:26.263Z,37.40
2023-01-30T22:51:54.291Z,47.22
2023-01-30T22:54:24.802Z,38.78
2023-01-30T22:56:52.978Z,38.33
2023-01-30T22:59:21.707Z,41.00
2023-01-30T23:01:51.929Z,35.17
2023-01-30T23:04:21.728Z,42.60
2023-01-30T23:06:51.866Z,40.58
2023-01-30T23:09:22.283Z,36.33
2023-01-30T23:12:07.464Z,36.72
2023-01-30T23:14:35.850Z,39.28
2023-01-30T23:17:25.345Z,39.30
2023-01-30T23:19:52.903Z,39.03
2023-01-30T23:22:21.297Z,45.15
2023-01-30T23:24:51.134Z,47.20
2023-01-30T23:27:21.366Z,47.42
2023-01-30T23:29:49.554Z,40.45
2023-01-30T23:32:19.869Z,39.42
2023-01-30T23:34:47.958Z,45.03
2023-01-30T23:37:16.096Z,39.55
2023-01-30T23:39:44.661Z,41.38
2023-01-30T23:42:12.894Z,44.08
2023-01-30T23:44:42.316Z,41.00
2023-01-30T23:47:10.351Z,43.70
2023-01-30T23:49:38.744Z,42.47
2023-01-30T23:52:07.245Z,42.13
2023-01-30T23:54:35.328Z,44.53
2023-01-30T23:57:03.345Z,42.33
2023-01-30T23:59:31.525Z,42.97
